ENKR/KKN METAR and TAF weather

Enter ICAO airport designator
Station Type Date Time Source
ENKR METAR 2022/01/19 19:50 UTC NOAA

ENKR 191950Z 23005KT 9999 FEW042 SCT100 M04/M06 Q0976 RMK WIND 731FT 25009KT


Station Type Date Time Source
ENKR Decoded METAR 2022/01/19 19:50 UTC NOAA

Kirkenes Lufthavn, Norway (ENKR) 69-44N 029-54E 91M
Jan 19, 2022 - 02:50 PM EST / 2022.01.19 1950 UTC
Wind: from the SW (230 degrees) at 6 MPH (5 KT):0
Visibility: greater than 7 mile(s):0
Sky conditions: partly cloudy
Temperature: 24 F (-4 C)
Windchill: 17 F (-8 C):1
Dew Point: 21 F (-6 C)
Relative Humidity: 85%
Pressure (altimeter): 28.82 in. Hg (0976 hPa)
ob: ENKR 191950Z 23005KT 9999 FEW042 SCT100 M04/M06 Q0976 RMK WIND 731FT 25009KT
cycle: 20

Station Type Date Time Source
ENKR TAF 2017/08/31 21:36 UTC NOAA

TAF TAF ENKR 312300Z 3121/0109 29005KT 9999 FEW020 SCT040

Example: see airport list